createdAt,value
2023-03-17T00:02:25.483Z,1.50
2023-03-17T00:05:33.191Z,1.20
2023-03-17T00:08:37.432Z,1.50
2023-03-17T00:11:42.075Z,1.60
2023-03-17T00:14:46.809Z,1.30
2023-03-17T00:17:50.696Z,1.33
2023-03-17T00:20:53.890Z,1.70
2023-03-17T00:23:58.325Z,1.60
2023-03-17T00:27:04.343Z,1.67
2023-03-17T00:30:08.697Z,1.63
2023-03-17T00:33:12.431Z,1.40
2023-03-17T00:36:18.842Z,1.80
2023-03-17T00:39:21.760Z,1.60
2023-03-17T00:42:26.569Z,1.77
2023-03-17T00:45:29.559Z,1.60
2023-03-17T00:48:32.518Z,1.60
2023-03-17T00:51:35.476Z,1.30
2023-03-17T00:54:38.401Z,1.10
2023-03-17T00:57:44.224Z,1.60
2023-03-17T01:00:47.422Z,1.50
2023-03-17T01:03:50.405Z,1.50
2023-03-17T01:06:53.972Z,1.50
2023-03-17T01:09:57.041Z,1.63
2023-03-17T01:13:01.377Z,1.80
2023-03-17T01:16:04.601Z,1.27
2023-03-17T01:19:08.034Z,1.63
2023-03-17T01:22:11.245Z,1.57
2023-03-17T01:25:14.519Z,1.53
2023-03-17T01:28:20.101Z,1.60
2023-03-17T01:31:23.418Z,1.90
2023-03-17T01:34:27.017Z,1.40
2023-03-17T01:37:29.949Z,1.73
2023-03-17T01:40:35.855Z,2.07
2023-03-17T01:43:40.251Z,1.77
2023-03-17T01:46:43.998Z,1.67
2023-03-17T01:49:47.121Z,1.53
2023-03-17T01:52:50.060Z,1.43
2023-03-17T01:55:53.763Z,1.83
2023-03-17T01:59:02.183Z,1.50
2023-03-17T02:02:08.997Z,1.80
2023-03-17T02:05:16.922Z,1.80
2023-03-17T02:08:21.088Z,1.53
2023-03-17T02:11:24.094Z,2.03
2023-03-17T02:14:29.309Z,2.07
2023-03-17T02:17:32.476Z,2.07
2023-03-17T02:21:20.650Z,2.07
2023-03-17T02:24:32.466Z,2.43
2023-03-17T02:27:39.396Z,1.83
2023-03-17T02:30:43.036Z,1.57
2023-03-17T02:33:46.024Z,2.10
2023-03-17T02:36:49.068Z,2.10
2023-03-17T02:39:53.685Z,2.40
2023-03-17T02:42:57.432Z,1.70
2023-03-17T02:46:01.200Z,1.70
2023-03-17T02:49:05.107Z,1.97
2023-03-17T02:52:09.246Z,1.90
2023-03-17T02:55:14.188Z,2.50
2023-03-17T02:58:17.302Z,2.27
2023-03-17T03:01:21.191Z,2.13
2023-03-17T03:04:26.267Z,1.90
2023-03-17T03:07:29.350Z,1.90
2023-03-17T03:10:33.910Z,2.07
2023-03-17T03:13:37.611Z,1.83
2023-03-17T03:16:41.066Z,2.17
2023-03-17T03:19:44.926Z,2.33
2023-03-17T03:22:47.966Z,2.30
2023-03-17T03:25:52.323Z,1.97
2023-03-17T03:28:57.295Z,2.83
2023-03-17T03:32:00.257Z,2.23
2023-03-17T03:35:04.450Z,2.00
2023-03-17T03:38:07.830Z,2.47
2023-03-17T03:41:13.086Z,2.50
2023-03-17T03:44:16.131Z,2.40
2023-03-17T03:47:19.185Z,2.00
2023-03-17T03:50:22.691Z,2.00
2023-03-17T03:53:25.836Z,2.30
2023-03-17T03:56:30.260Z,2.27
2023-03-17T03:59:33.210Z,1.83
2023-03-17T04:02:36.453Z,1.90
2023-03-17T04:05:39.437Z,2.30
2023-03-17T04:08:42.444Z,2.30
2023-03-17T04:11:46.913Z,1.97
2023-03-17T04:14:50.231Z,2.33
2023-03-17T04:17:54.973Z,2.40
2023-03-17T04:20:58.007Z,2.40
2023-03-17T04:24:01.460Z,2.40
2023-03-17T04:27:06.313Z,2.40
2023-03-17T04:30:12.220Z,3.00
2023-03-17T04:33:15.403Z,2.30
2023-03-17T04:36:20.402Z,2.47
2023-03-17T04:39:23.646Z,2.33
2023-03-17T04:42:28.016Z,2.70
2023-03-17T04:45:31.081Z,2.93
2023-03-17T04:48:34.208Z,2.90
2023-03-17T04:51:37.608Z,3.17
2023-03-17T04:54:40.957Z,2.97
2023-03-17T04:57:45.871Z,2.53
2023-03-17T05:00:48.939Z,2.30
2023-03-17T05:03:51.943Z,2.73
2023-03-17T05:06:58.080Z,2.53
2023-03-17T05:10:02.082Z,2.63
2023-03-17T05:13:06.546Z,2.40
2023-03-17T05:16:10.987Z,3.10
2023-03-17T05:19:14.020Z,2.97
2023-03-17T05:22:17.040Z,2.40
2023-03-17T05:25:20.017Z,2.60
2023-03-17T05:28:24.756Z,2.73
2023-03-17T05:31:27.821Z,2.87
2023-03-17T05:34:31.158Z,3.07
2023-03-17T05:37:34.323Z,2.73
2023-03-17T05:40:37.370Z,2.83
2023-03-17T05:43:41.814Z,2.90
2023-03-17T05:46:44.796Z,3.17
2023-03-17T05:49:47.738Z,3.23
2023-03-17T05:52:51.536Z,3.40
2023-03-17T05:55:54.542Z,3.00
2023-03-17T05:58:59.121Z,2.90
2023-03-17T06:02:02.151Z,3.10
2023-03-17T06:05:06.225Z,3.20
2023-03-17T06:08:09.943Z,3.00
2023-03-17T06:11:13.108Z,3.20
2023-03-17T06:14:18.043Z,3.30
2023-03-17T06:17:21.083Z,2.90
2023-03-17T06:20:24.120Z,2.90
2023-03-17T06:23:27.131Z,3.13
2023-03-17T06:26:30.163Z,3.23
2023-03-17T06:29:34.551Z,2.93
2023-03-17T06:32:37.947Z,3.10
2023-03-17T06:35:41.310Z,3.13
2023-03-17T06:38:46.073Z,3.27
2023-03-17T06:41:49.563Z,3.47
2023-03-17T06:44:53.872Z,3.30
2023-03-17T06:47:56.986Z,3.20
2023-03-17T06:50:59.977Z,3.30
2023-03-17T06:54:03.178Z,3.60
2023-03-17T06:57:06.976Z,3.60
2023-03-17T07:00:14.021Z,3.27
2023-03-17T07:03:17.216Z,3.93
2023-03-17T07:06:20.320Z,3.53
2023-03-17T07:09:25.740Z,3.60
2023-03-17T07:12:28.932Z,3.30
2023-03-17T07:15:35.819Z,3.20
2023-03-17T07:18:39.475Z,3.60
2023-03-17T07:21:42.564Z,2.93
2023-03-17T07:24:46.945Z,3.67
2023-03-17T07:27:50.032Z,3.70
2023-03-17T07:30:54.753Z,3.20
2023-03-17T07:33:58.349Z,3.37
2023-03-17T07:37:01.823Z,3.07
2023-03-17T07:40:06.346Z,3.20
2023-03-17T07:43:10.590Z,3.07
2023-03-17T07:46:15.111Z,3.03
2023-03-17T07:49:20.953Z,3.50
2023-03-17T07:52:31.176Z,3.30
2023-03-17T07:55:34.307Z,3.57
2023-03-17T07:58:37.260Z,3.10
2023-03-17T08:01:41.619Z,3.13
2023-03-17T08:04:45.318Z,2.90
2023-03-17T08:07:48.837Z,2.93
2023-03-17T08:10:52.450Z,3.37
2023-03-17T08:13:55.629Z,2.87
2023-03-17T08:17:00.010Z,2.97
2023-03-17T08:20:04.818Z,2.70
2023-03-17T08:23:07.854Z,2.90
2023-03-17T08:26:11.371Z,2.90
2023-03-17T08:29:15.662Z,2.83
2023-03-17T08:32:20.661Z,3.20
2023-03-17T08:35:24.910Z,2.90
2023-03-17T08:38:28.352Z,3.10
2023-03-17T08:41:31.979Z,2.83
2023-03-17T08:44:35.257Z,3.27
2023-03-17T08:47:40.231Z,3.10
2023-03-17T08:50:43.381Z,3.00
2023-03-17T08:53:46.536Z,3.10
2023-03-17T08:56:49.533Z,3.30
2023-03-17T08:59:52.592Z,3.10
2023-03-17T09:02:58.296Z,3.30
2023-03-17T09:06:04.526Z,3.17
2023-03-17T09:09:07.632Z,2.87
2023-03-17T09:12:11.211Z,2.50
2023-03-17T09:15:14.171Z,2.80
2023-03-17T09:18:20.768Z,2.50
2023-03-17T09:21:25.025Z,2.60
2023-03-17T09:24:28.001Z,2.50
2023-03-17T09:27:31.023Z,2.80
2023-03-17T09:30:34.211Z,2.33
2023-03-17T09:33:38.560Z,2.30
2023-03-17T09:36:42.051Z,2.33
2023-03-17T09:39:45.027Z,2.13
2023-03-17T09:42:55.531Z,2.13
2023-03-17T09:46:01.937Z,2.13
2023-03-17T09:49:09.163Z,2.30
2023-03-17T09:52:14.829Z,2.77
2023-03-17T09:55:26.236Z,2.20
2023-03-17T09:58:32.720Z,2.60
2023-03-17T10:01:44.654Z,2.60
2023-03-17T10:04:49.215Z,2.37
2023-03-17T10:08:00.151Z,2.30
2023-03-17T10:11:12.682Z,2.33
2023-03-17T10:14:28.585Z,2.00
2023-03-17T10:17:35.288Z,2.13
2023-03-17T10:20:51.508Z,2.43
2023-03-17T10:23:56.265Z,2.30
2023-03-17T10:27:04.611Z,2.33
2023-03-17T10:30:16.044Z,2.03
2023-03-17T10:33:19.044Z,2.10
2023-03-17T10:36:37.688Z,1.90
2023-03-17T10:39:46.154Z,2.20
2023-03-17T10:42:53.284Z,2.03
2023-03-17T10:46:00.164Z,2.13
2023-03-17T10:49:09.330Z,1.93
2023-03-17T10:52:21.040Z,2.17
2023-03-17T10:55:28.042Z,2.10
2023-03-17T10:58:38.554Z,1.73
2023-03-17T11:01:47.857Z,2.20
2023-03-17T11:04:51.177Z,1.90
2023-03-17T11:08:08.127Z,2.10
2023-03-17T11:11:24.673Z,2.13
2023-03-17T11:14:28.230Z,2.20
2023-03-17T11:17:43.248Z,2.23
2023-03-17T11:20:51.280Z,1.80
2023-03-17T11:24:02.598Z,2.10
2023-03-17T11:27:12.925Z,2.30
2023-03-17T11:30:22.145Z,2.10
2023-03-17T11:33:36.168Z,1.90
2023-03-17T11:36:53.586Z,1.87
2023-03-17T11:40:07.747Z,1.73
2023-03-17T11:43:22.861Z,1.80
2023-03-17T11:46:29.580Z,1.57
2023-03-17T11:49:36.929Z,1.93
2023-03-17T11:52:49.674Z,1.90
2023-03-17T11:55:58.751Z,2.20
2023-03-17T11:59:05.396Z,1.77
2023-03-17T12:02:20.023Z,1.87
2023-03-17T12:05:26.086Z,1.50
2023-03-17T12:08:37.662Z,1.73
2023-03-17T12:11:44.772Z,1.80
2023-03-17T12:14:52.329Z,1.60
2023-03-17T12:17:59.840Z,1.70
2023-03-17T12:21:10.826Z,1.50
2023-03-17T12:24:20.047Z,1.50
2023-03-17T12:27:29.582Z,1.60
2023-03-17T12:30:41.041Z,1.83
2023-03-17T12:33:51.819Z,1.70
2023-03-17T12:36:55.566Z,1.70
2023-03-17T12:40:06.671Z,1.60
2023-03-17T12:43:36.947Z,1.60
2023-03-17T12:47:00.865Z,1.87
2023-03-17T12:50:30.858Z,2.27
2023-03-17T12:53:35.488Z,1.83
2023-03-17T12:56:45.575Z,1.97
2023-03-17T12:59:57.498Z,2.00
2023-03-17T13:03:19.895Z,1.80
2023-03-17T13:06:24.622Z,2.10
2023-03-17T13:09:33.354Z,2.20
2023-03-17T13:12:57.391Z,1.87
2023-03-17T13:16:05.599Z,1.90
2023-03-17T13:19:16.915Z,1.87
2023-03-17T13:22:35.113Z,1.80
2023-03-17T13:25:53.324Z,2.33
2023-03-17T13:28:56.413Z,1.70
2023-03-17T13:32:35.443Z,1.90
2023-03-17T13:35:42.292Z,2.00
2023-03-17T13:39:18.316Z,1.87
2023-03-17T13:42:39.768Z,1.67
2023-03-17T13:45:44.178Z,2.93
2023-03-17T13:48:48.824Z,2.20
2023-03-17T13:51:59.818Z,2.30
2023-03-17T13:55:25.604Z,1.80
2023-03-17T13:58:36.039Z,1.57
2023-03-17T14:01:43.641Z,1.67
2023-03-17T14:04:53.437Z,1.73
2023-03-17T14:08:01.657Z,1.60
2023-03-17T14:11:08.889Z,1.50
2023-03-17T14:14:32.041Z,1.60
2023-03-17T14:17:42.517Z,1.80
2023-03-17T14:20:53.960Z,1.30
2023-03-17T14:23:58.221Z,1.57
2023-03-17T14:27:08.209Z,1.50
2023-03-17T14:30:19.718Z,1.70
2023-03-17T14:33:24.775Z,1.83
2023-03-17T14:36:29.263Z,1.60
2023-03-17T14:39:32.517Z,2.03
2023-03-17T14:42:36.011Z,1.60
2023-03-17T14:45:52.961Z,1.60
2023-03-17T14:49:01.076Z,1.50
2023-03-17T14:52:04.112Z,1.67
2023-03-17T14:55:08.226Z,1.63
2023-03-17T14:58:20.214Z,1.63
2023-03-17T15:01:35.639Z,1.57
2023-03-17T15:04:52.556Z,1.50
2023-03-17T15:07:55.997Z,1.60
2023-03-17T15:11:00.579Z,1.80
2023-03-17T15:14:07.603Z,1.27
2023-03-17T15:17:18.950Z,1.70
2023-03-17T15:20:22.525Z,1.60
2023-03-17T15:23:29.330Z,1.40
2023-03-17T15:26:32.390Z,1.63
2023-03-17T15:29:35.516Z,1.37
2023-03-17T15:32:40.066Z,1.63
2023-03-17T15:35:43.188Z,1.73
2023-03-17T15:38:46.156Z,1.83
2023-03-17T15:41:49.125Z,1.50
2023-03-17T15:44:52.158Z,1.50
2023-03-17T15:47:57.042Z,1.60
2023-03-17T15:51:01.414Z,1.70
2023-03-17T15:54:04.577Z,1.43
2023-03-17T15:57:07.627Z,1.53
2023-03-17T16:00:16.710Z,1.70
2023-03-17T16:03:28.460Z,1.60
2023-03-17T16:06:31.546Z,1.50
2023-03-17T16:09:35.896Z,1.30
2023-03-17T16:12:38.859Z,1.67
2023-03-17T16:15:44.142Z,1.83
2023-03-17T16:18:50.204Z,1.70
2023-03-17T16:21:55.152Z,1.70
2023-03-17T16:24:58.987Z,1.80
2023-03-17T16:28:03.938Z,1.60
2023-03-17T16:31:21.563Z,1.53
2023-03-17T16:34:26.574Z,1.40
2023-03-17T16:37:29.717Z,1.60
2023-03-17T16:40:36.474Z,1.73
2023-03-17T16:43:40.882Z,1.40
2023-03-17T16:46:44.970Z,1.40
2023-03-17T16:49:49.297Z,1.37
2023-03-17T16:52:52.418Z,1.70
2023-03-17T16:55:56.019Z,1.57
2023-03-17T16:58:59.752Z,1.70
2023-03-17T17:02:02.864Z,1.73
2023-03-17T17:05:15.493Z,1.40
2023-03-17T17:08:18.467Z,1.90
2023-03-17T17:11:22.188Z,1.70
2023-03-17T17:14:25.218Z,1.57
2023-03-17T17:17:28.316Z,1.90
2023-03-17T17:20:34.363Z,1.43
2023-03-17T17:23:37.487Z,1.63
2023-03-17T17:26:41.416Z,1.50
2023-03-17T17:29:44.536Z,1.80
2023-03-17T17:32:48.047Z,1.70
2023-03-17T17:35:53.208Z,1.83
2023-03-17T17:38:56.244Z,2.00
2023-03-17T17:41:59.189Z,2.10
2023-03-17T17:45:02.470Z,2.00
2023-03-17T17:48:05.576Z,1.90
2023-03-17T17:51:09.878Z,1.83
2023-03-17T17:54:12.915Z,1.70
2023-03-17T17:57:16.639Z,2.20
2023-03-17T18:00:20.375Z,2.40
2023-03-17T18:03:25.191Z,2.60
2023-03-17T18:06:29.625Z,2.10
2023-03-17T18:09:32.729Z,2.17
2023-03-17T18:12:35.689Z,2.10
2023-03-17T18:15:38.838Z,2.00
2023-03-17T18:18:43.252Z,1.90
2023-03-17T18:21:47.586Z,1.80
2023-03-17T18:24:50.896Z,2.03
2023-03-17T18:27:54.400Z,2.17
2023-03-17T18:31:01.193Z,2.20
2023-03-17T18:34:07.599Z,2.10
2023-03-17T18:37:14.056Z,2.30
2023-03-17T18:40:32.197Z,2.40
2023-03-17T18:43:35.406Z,2.97
2023-03-17T18:46:38.432Z,2.57
2023-03-17T18:49:41.428Z,2.37
2023-03-17T18:52:46.408Z,2.90
2023-03-17T18:55:49.497Z,2.70
2023-03-17T18:58:52.443Z,3.10
2023-03-17T19:01:56.294Z,2.30
2023-03-17T19:04:59.603Z,2.77
2023-03-17T19:08:04.015Z,2.57
2023-03-17T19:11:08.892Z,2.27
2023-03-17T19:14:14.022Z,2.23
2023-03-17T19:17:17.212Z,2.23
2023-03-17T19:20:20.428Z,2.13
2023-03-17T19:23:25.061Z,2.47
2023-03-17T19:26:30.294Z,2.17
2023-03-17T19:29:33.479Z,2.00
2023-03-17T19:32:36.653Z,2.37
2023-03-17T19:35:40.746Z,2.60
2023-03-17T19:38:45.186Z,1.97
2023-03-17T19:41:48.473Z,2.53
2023-03-17T19:44:51.546Z,2.47
2023-03-17T19:47:54.664Z,2.40
2023-03-17T19:50:57.692Z,2.57
2023-03-17T19:54:02.161Z,2.33
2023-03-17T19:57:05.466Z,2.60
2023-03-17T20:00:11.805Z,2.83
2023-03-17T20:03:15.378Z,2.37
2023-03-17T20:06:18.818Z,2.70
2023-03-17T20:09:24.647Z,2.80
2023-03-17T20:12:27.765Z,2.93
2023-03-17T20:15:30.926Z,2.73
2023-03-17T20:18:34.071Z,2.90
2023-03-17T20:21:37.644Z,3.20
2023-03-17T20:24:42.452Z,2.90
2023-03-17T20:27:45.451Z,2.83
2023-03-17T20:30:49.278Z,3.50
2023-03-17T20:33:52.346Z,2.80
2023-03-17T20:36:55.345Z,2.93
2023-03-17T20:40:01.169Z,3.30
2023-03-17T20:43:04.178Z,2.90
2023-03-17T20:46:09.191Z,2.83
2023-03-17T20:49:13.027Z,3.07
2023-03-17T20:52:17.417Z,2.97
2023-03-17T20:55:21.755Z,3.00
2023-03-17T20:58:24.833Z,2.60
2023-03-17T21:01:29.291Z,2.83
2023-03-17T21:04:32.321Z,2.73
2023-03-17T21:07:35.426Z,3.57
2023-03-17T21:10:39.862Z,3.00
2023-03-17T21:13:44.095Z,3.50
2023-03-17T21:16:47.329Z,3.67
2023-03-17T21:19:50.406Z,3.10
2023-03-17T21:22:53.362Z,3.60
2023-03-17T21:25:57.728Z,3.07
2023-03-17T21:29:00.726Z,3.50
2023-03-17T21:32:06.799Z,2.90
2023-03-17T21:35:10.374Z,3.20
2023-03-17T21:38:13.375Z,3.00
2023-03-17T21:41:22.992Z,3.17
2023-03-17T21:44:26.399Z,3.43
2023-03-17T21:47:30.289Z,3.17
2023-03-17T21:50:33.639Z,3.10
2023-03-17T21:53:36.834Z,3.63
2023-03-17T21:56:41.491Z,2.93
2023-03-17T21:59:45.494Z,3.20
2023-03-17T22:02:48.561Z,3.60
2023-03-17T22:05:52.528Z,3.20
2023-03-17T22:08:55.549Z,3.47
2023-03-17T22:11:59.978Z,3.27
2023-03-17T22:15:03.819Z,3.30
2023-03-17T22:18:06.976Z,3.03
2023-03-17T22:21:11.099Z,3.07
2023-03-17T22:24:14.351Z,3.23
2023-03-17T22:27:19.331Z,3.43
2023-03-17T22:30:22.379Z,3.57
2023-03-17T22:33:25.332Z,3.30
2023-03-17T22:36:29.154Z,3.27
2023-03-17T22:39:32.198Z,3.17
2023-03-17T22:42:36.561Z,2.80
2023-03-17T22:45:39.991Z,3.10
2023-03-17T22:48:43.005Z,2.87
2023-03-17T22:51:47.839Z,3.20
2023-03-17T22:54:50.842Z,3.03
2023-03-17T22:57:55.160Z,3.50
2023-03-17T23:00:58.338Z,2.83
2023-03-17T23:04:01.967Z,3.30
2023-03-17T23:07:05.816Z,3.20
2023-03-17T23:10:10.010Z,3.00
2023-03-17T23:13:14.739Z,3.33
2023-03-17T23:16:18.205Z,2.93
2023-03-17T23:19:21.252Z,3.57
2023-03-17T23:22:24.244Z,3.87
2023-03-17T23:25:27.203Z,3.53
2023-03-17T23:28:31.564Z,3.20
2023-03-17T23:31:35.001Z,3.67
2023-03-17T23:34:38.030Z,3.93
2023-03-17T23:37:41.605Z,3.73
2023-03-17T23:40:44.571Z,4.13
2023-03-17T23:43:48.990Z,3.80
2023-03-17T23:46:52.377Z,3.87
2023-03-17T23:49:55.878Z,4.00
2023-03-17T23:52:59.109Z,3.60
2023-03-17T23:56:02.185Z,3.77
2023-03-17T23:59:07.994Z,4.40
